createdAt,value
2018-05-14T00:01:40.234Z,99.99
2018-05-14T00:02:40.254Z,99.99
2018-05-14T00:04:33.205Z,99.99
2018-05-14T00:05:33.209Z,99.99
2018-05-14T00:07:26.140Z,99.99
2018-05-14T00:08:26.163Z,99.77
2018-05-14T00:10:19.119Z,99.99
2018-05-14T00:11:19.118Z,99.99
2018-05-14T00:13:12.050Z,99.99
2018-05-14T00:14:12.069Z,99.99
2018-05-14T00:16:05.020Z,99.99
2018-05-14T00:17:05.026Z,99.99
2018-05-14T00:18:58.486Z,99.99
2018-05-14T00:19:58.490Z,99.99
2018-05-14T00:21:51.420Z,99.99
2018-05-14T00:22:51.444Z,99.99
2018-05-14T00:24:44.394Z,99.99
2018-05-14T00:25:44.399Z,99.99
2018-05-14T00:27:37.328Z,99.99
2018-05-14T00:28:37.353Z,99.99
2018-05-14T00:30:30.301Z,99.99
2018-05-14T00:31:30.307Z,99.99
2018-05-14T00:33:23.235Z,99.99
2018-05-14T00:34:23.258Z,99.99
2018-05-14T00:36:17.743Z,99.99
2018-05-14T00:37:17.749Z,99.99
2018-05-14T00:39:10.698Z,99.99
2018-05-14T00:40:10.703Z,99.99
2018-05-14T00:42:03.634Z,99.99
2018-05-14T00:43:03.657Z,99.99
2018-05-14T00:44:57.116Z,99.99
2018-05-14T00:45:57.122Z,99.99
2018-05-14T00:47:50.051Z,99.99
2018-05-14T00:48:50.080Z,99.99
2018-05-14T00:50:43.026Z,99.99
2018-05-14T00:51:43.028Z,99.99
2018-05-14T00:53:35.961Z,99.99
2018-05-14T00:54:35.984Z,99.99
2018-05-14T00:56:28.932Z,99.99
2018-05-14T00:57:28.938Z,99.99
2018-05-14T00:59:21.885Z,99.99
2018-05-14T01:00:21.893Z,99.99
2018-05-14T01:02:14.820Z,99.99
2018-05-14T01:03:14.845Z,99.99
2018-05-14T01:05:07.794Z,99.99
2018-05-14T01:06:07.800Z,99.99
2018-05-14T01:08:00.729Z,99.99
2018-05-14T01:09:00.752Z,99.99
2018-05-14T01:10:53.699Z,99.99
2018-05-14T01:11:53.706Z,99.99
2018-05-14T01:13:49.708Z,99.99
2018-05-14T01:14:49.731Z,99.99
2018-05-14T01:16:42.681Z,99.99
2018-05-14T01:17:42.687Z,99.99
2018-05-14T01:19:35.634Z,99.99
2018-05-14T01:20:35.642Z,99.99
2018-05-14T01:22:29.082Z,99.99
2018-05-14T01:23:29.106Z,99.99
2018-05-14T01:25:22.055Z,99.99
2018-05-14T01:26:22.059Z,99.99
2018-05-14T01:28:15.601Z,99.99
2018-05-14T01:29:15.526Z,99.99
2018-05-14T01:31:08.474Z,99.99
2018-05-14T01:32:08.480Z,99.99
2018-05-14T01:34:01.413Z,99.99
2018-05-14T01:35:01.437Z,99.19
2018-05-14T01:36:54.383Z,99.29
2018-05-14T01:37:54.387Z,99.58
2018-05-14T01:39:47.342Z,99.68
2018-05-14T01:40:47.342Z,99.01
2018-05-14T01:42:40.269Z,99.10
2018-05-14T01:43:40.293Z,99.29
2018-05-14T01:45:33.243Z,98.24
2018-05-14T01:46:33.250Z,98.43
2018-05-14T01:48:26.177Z,98.43
2018-05-14T01:49:26.203Z,98.33
2018-05-14T01:51:19.151Z,98.81
2018-05-14T01:52:19.159Z,98.43
2018-05-14T01:54:12.088Z,97.85
2018-05-14T01:55:12.114Z,98.72
2018-05-14T01:57:05.059Z,98.43
2018-05-14T01:58:05.064Z,98.33
2018-05-14T01:59:58.013Z,98.43
2018-05-14T02:00:58.019Z,98.43
2018-05-14T02:02:52.484Z,98.62
2018-05-14T02:03:52.508Z,97.66
2018-05-14T02:05:55.436Z,97.95
2018-05-14T02:06:55.452Z,97.95
2018-05-14T02:08:49.347Z,98.14
2018-05-14T02:09:49.372Z,97.95
2018-05-14T02:11:42.306Z,98.24
2018-05-14T02:12:42.303Z,98.24
2018-05-14T02:14:35.214Z,98.05
2018-05-14T02:15:35.237Z,97.76
2018-05-14T02:17:28.166Z,97.76
2018-05-14T02:18:28.167Z,97.95
2018-05-14T02:20:21.098Z,97.56
2018-05-14T02:21:21.099Z,97.56
2018-05-14T02:23:14.013Z,97.56
2018-05-14T02:24:14.033Z,97.47
2018-05-14T02:26:06.967Z,97.95
2018-05-14T02:27:06.967Z,97.28
2018-05-14T02:28:59.875Z,97.28
2018-05-14T02:29:59.899Z,97.66
2018-05-14T02:31:52.827Z,98.05
2018-05-14T02:32:52.831Z,97.56
2018-05-14T02:34:45.742Z,97.56
2018-05-14T02:35:45.765Z,97.56
2018-05-14T02:37:38.695Z,98.24
2018-05-14T02:38:38.698Z,98.57
2018-05-14T02:40:31.632Z,98.33
2018-05-14T02:41:31.632Z,98.72
2018-05-14T02:43:24.541Z,98.24
2018-05-14T02:44:24.574Z,98.24
2018-05-14T02:46:17.493Z,97.76
2018-05-14T02:47:17.494Z,97.38
2018-05-14T02:49:10.404Z,96.89
2018-05-14T02:50:10.426Z,96.70
2018-05-14T02:52:03.360Z,96.80
2018-05-14T02:53:03.360Z,96.61
2018-05-14T02:54:56.267Z,96.42
2018-05-14T02:55:56.291Z,96.89
2018-05-14T02:57:49.223Z,96.99
2018-05-14T02:58:49.224Z,97.23
2018-05-14T03:00:42.152Z,96.22
2018-05-14T03:01:42.155Z,96.61
2018-05-14T03:03:35.063Z,96.89
2018-05-14T03:04:35.084Z,96.51
2018-05-14T03:06:28.014Z,96.89
2018-05-14T03:07:28.015Z,96.89
2018-05-14T03:09:20.922Z,97.38
2018-05-14T03:10:21.014Z,97.47
2018-05-14T03:12:13.875Z,97.66
2018-05-14T03:13:13.875Z,96.80
2018-05-14T03:15:06.804Z,97.09
2018-05-14T03:16:06.830Z,96.89
2018-05-14T03:17:59.762Z,96.32
2018-05-14T03:18:59.763Z,96.61
2018-05-14T03:20:52.695Z,96.27
2018-05-14T03:21:52.704Z,96.42
2018-05-14T03:23:45.610Z,96.94
2018-05-14T03:24:45.632Z,97.33
2018-05-14T03:26:38.583Z,97.18
2018-05-14T03:27:38.586Z,97.23
2018-05-14T03:29:31.492Z,97.47
2018-05-14T03:30:31.517Z,97.56
2018-05-14T03:32:24.446Z,97.56
2018-05-14T03:33:24.449Z,97.42
2018-05-14T03:35:17.356Z,97.33
2018-05-14T03:36:17.378Z,97.18
2018-05-14T03:38:10.316Z,97.56
2018-05-14T03:39:10.320Z,97.95
2018-05-14T03:41:03.255Z,97.85
2018-05-14T03:42:03.249Z,96.80
2018-05-14T03:43:56.158Z,96.89
2018-05-14T03:44:56.181Z,96.89
2018-05-14T03:46:49.111Z,96.13
2018-05-14T03:47:49.114Z,96.51
2018-05-14T03:49:42.026Z,96.47
2018-05-14T03:50:42.049Z,96.56
2018-05-14T03:52:34.977Z,96.22
2018-05-14T03:53:34.982Z,96.18
2018-05-14T03:55:27.893Z,96.42
2018-05-14T03:56:27.916Z,95.84
2018-05-14T03:58:20.841Z,96.03
2018-05-14T03:59:20.846Z,95.84
2018-05-14T04:01:13.773Z,95.36
2018-05-14T04:02:13.781Z,95.07
2018-05-14T04:04:06.683Z,95.31
2018-05-14T04:05:06.705Z,95.36
2018-05-14T04:06:59.636Z,95.26
2018-05-14T04:07:59.637Z,95.07
2018-05-14T04:09:52.551Z,95.51
2018-05-14T04:10:52.571Z,95.21
2018-05-14T04:12:45.505Z,94.74
2018-05-14T04:13:45.504Z,94.12
2018-05-14T04:15:38.413Z,94.21
2018-05-14T04:16:38.515Z,94.79
2018-05-14T04:18:31.369Z,94.17
2018-05-14T04:19:31.371Z,94.26
2018-05-14T04:21:24.312Z,93.63
2018-05-14T04:22:24.315Z,93.73
2018-05-14T04:24:17.284Z,94.50
2018-05-14T04:25:17.250Z,94.02
2018-05-14T04:27:10.180Z,93.73
2018-05-14T04:28:10.181Z,93.83
2018-05-14T04:30:03.100Z,94.21
2018-05-14T04:31:03.111Z,94.02
2018-05-14T04:32:56.043Z,94.02
2018-05-14T04:33:56.043Z,94.21
2018-05-14T04:35:48.953Z,94.31
2018-05-14T04:36:48.975Z,94.74
2018-05-14T04:38:41.904Z,94.31
2018-05-14T04:39:41.905Z,93.88
2018-05-14T04:41:34.835Z,94.69
2018-05-14T04:42:34.834Z,94.55
2018-05-14T04:44:27.750Z,95.65
2018-05-14T04:45:27.770Z,95.70
2018-05-14T04:47:20.701Z,95.56
2018-05-14T04:48:20.709Z,96.03
2018-05-14T04:50:13.681Z,96.13
2018-05-14T04:51:13.635Z,96.18
2018-05-14T04:53:06.565Z,96.37
2018-05-14T04:54:06.567Z,96.75
2018-05-14T04:55:59.475Z,96.75
2018-05-14T04:56:59.501Z,96.99
2018-05-14T04:58:52.431Z,96.89
2018-05-14T04:59:52.434Z,96.89
2018-05-14T05:01:45.367Z,96.61
2018-05-14T05:02:45.368Z,96.61
2018-05-14T05:04:38.280Z,96.27
2018-05-14T05:05:38.313Z,95.36
2018-05-14T05:07:31.242Z,94.69
2018-05-14T05:08:31.238Z,94.89
2018-05-14T05:10:24.254Z,94.89
2018-05-14T05:11:24.215Z,94.50
2018-05-14T05:13:17.106Z,94.26
2018-05-14T05:14:17.105Z,93.68
2018-05-14T05:16:10.020Z,93.59
2018-05-14T05:17:10.101Z,93.11
2018-05-14T05:19:02.970Z,93.40
2018-05-14T05:20:02.973Z,93.11
2018-05-14T05:21:55.907Z,93.78
2018-05-14T05:22:55.979Z,93.68
2018-05-14T05:24:48.822Z,92.68
2018-05-14T05:25:48.845Z,92.77
2018-05-14T05:27:41.851Z,91.62
2018-05-14T05:28:41.786Z,91.72
2018-05-14T05:30:34.694Z,90.90
2018-05-14T05:31:34.717Z,90.03
2018-05-14T05:33:27.650Z,89.84
2018-05-14T05:34:27.708Z,89.65
2018-05-14T05:36:20.573Z,87.35
2018-05-14T05:37:20.598Z,86.81
2018-05-14T05:39:13.529Z,86.62
2018-05-14T05:40:13.540Z,86.72
2018-05-14T05:42:06.471Z,86.14
2018-05-14T05:43:06.478Z,85.99
2018-05-14T05:44:59.395Z,84.26
2018-05-14T05:45:59.420Z,84.88
2018-05-14T05:47:52.358Z,82.61
2018-05-14T05:48:52.363Z,80.88
2018-05-14T05:50:45.285Z,79.77
2018-05-14T05:51:45.308Z,79.28
2018-05-14T05:53:38.254Z,78.36
2018-05-14T05:54:38.257Z,77.34
2018-05-14T05:56:31.175Z,75.78
2018-05-14T05:57:31.203Z,73.47
2018-05-14T05:59:24.144Z,71.48
2018-05-14T06:00:24.157Z,70.16
2018-05-14T06:02:24.223Z,67.97
2018-05-14T06:03:17.104Z,67.82
2018-05-14T06:05:10.027Z,66.40
2018-05-14T06:06:10.057Z,65.34
2018-05-14T06:08:03.007Z,64.76
2018-05-14T06:09:03.012Z,64.27
2018-05-14T06:10:55.943Z,62.76
2018-05-14T06:11:55.966Z,61.92
2018-05-14T06:13:48.919Z,62.30
2018-05-14T06:14:48.921Z,62.27
2018-05-14T06:16:48.976Z,61.24
2018-05-14T06:17:41.877Z,60.57
2018-05-14T06:19:34.830Z,61.11
2018-05-14T06:20:34.841Z,61.27
2018-05-14T06:22:27.787Z,62.44
2018-05-14T06:23:27.794Z,63.02
2018-05-14T06:25:20.725Z,61.47
2018-05-14T06:26:20.755Z,62.24
2018-05-14T06:28:13.707Z,63.89
2018-05-14T06:29:13.714Z,63.50
2018-05-14T06:31:06.863Z,62.56
2018-05-14T06:32:06.855Z,62.37
2018-05-14T06:33:59.631Z,62.01
2018-05-14T06:34:59.639Z,60.57
2018-05-14T06:36:52.566Z,62.95
2018-05-14T06:37:52.598Z,63.43
2018-05-14T06:39:45.550Z,62.30
2018-05-14T06:40:45.595Z,60.66
2018-05-14T06:42:38.514Z,60.60
2018-05-14T06:43:38.528Z,61.18
2018-05-14T06:45:31.457Z,61.27
2018-05-14T06:46:31.492Z,61.76
2018-05-14T06:48:24.442Z,62.27
2018-05-14T06:49:24.453Z,62.27
2018-05-14T06:51:17.384Z,60.50
2018-05-14T06:52:17.413Z,60.53
2018-05-14T06:54:10.442Z,61.69
2018-05-14T06:55:10.503Z,61.27
2018-05-14T06:57:03.306Z,61.79
2018-05-14T06:58:03.339Z,60.69
2018-05-14T06:59:56.291Z,61.66
2018-05-14T07:00:56.301Z,61.86
2018-05-14T07:02:49.254Z,63.37
2018-05-14T07:03:49.261Z,63.47
2018-05-14T07:05:42.191Z,63.43
2018-05-14T07:06:42.225Z,64.50
2018-05-14T07:08:35.177Z,64.11
2018-05-14T07:09:35.187Z,65.37
2018-05-14T07:11:28.133Z,65.56
2018-05-14T07:12:28.150Z,64.31
2018-05-14T07:14:21.104Z,64.40
2018-05-14T07:15:21.116Z,64.05
2018-05-14T07:17:14.044Z,62.98
2018-05-14T07:18:14.075Z,63.47
2018-05-14T07:20:07.026Z,64.53
2018-05-14T07:21:07.033Z,64.05
2018-05-14T07:22:59.984Z,65.01
2018-05-14T07:23:59.987Z,64.63
2018-05-14T07:25:52.919Z,64.14
2018-05-14T07:26:52.946Z,64.34
2018-05-14T07:28:45.894Z,65.17
2018-05-14T07:29:45.900Z,65.56
2018-05-14T07:31:38.855Z,63.31
2018-05-14T07:32:38.884Z,63.60
2018-05-14T07:34:31.825Z,65.40
2018-05-14T07:35:31.838Z,66.08
2018-05-14T07:37:24.760Z,66.08
2018-05-14T07:38:24.791Z,67.23
2018-05-14T07:40:17.730Z,68.01
2018-05-14T07:41:17.739Z,70.32
2018-05-14T07:43:10.688Z,68.49
2018-05-14T07:44:10.713Z,66.75
2018-05-14T07:46:03.635Z,66.08
2018-05-14T07:47:03.645Z,66.69
2018-05-14T07:48:56.585Z,66.56
2018-05-14T07:49:56.595Z,67.62
2018-05-14T07:51:49.518Z,67.71
2018-05-14T07:52:49.547Z,67.71
2018-05-14T07:54:43.511Z,66.94
2018-05-14T07:55:43.494Z,66.36
2018-05-14T07:57:36.417Z,67.52
2018-05-14T07:58:36.446Z,67.71
2018-05-14T08:00:29.393Z,67.43
2018-05-14T08:01:29.395Z,66.94
2018-05-14T08:03:22.331Z,67.14
2018-05-14T08:04:22.345Z,66.56
2018-05-14T08:06:15.267Z,66.56
2018-05-14T08:07:15.291Z,66.85
2018-05-14T08:09:08.232Z,66.85
2018-05-14T08:10:08.240Z,67.91
2018-05-14T08:12:01.161Z,67.04
2018-05-14T08:13:01.188Z,67.23
2018-05-14T08:14:54.126Z,67.52
2018-05-14T08:15:54.134Z,67.33
2018-05-14T08:17:47.052Z,67.04
2018-05-14T08:18:47.081Z,67.23
2018-05-14T08:20:40.021Z,68.59
2018-05-14T08:21:40.033Z,69.26
2018-05-14T08:23:33.037Z,66.78
2018-05-14T08:24:32.978Z,66.78
2018-05-14T08:26:25.901Z,64.08
2018-05-14T08:27:25.926Z,64.66
2018-05-14T08:29:18.871Z,65.63
2018-05-14T08:30:18.873Z,65.34
2018-05-14T08:32:11.798Z,65.53
2018-05-14T08:33:11.826Z,66.11
2018-05-14T08:35:04.764Z,63.98
2018-05-14T08:36:04.772Z,64.37
2018-05-14T08:37:57.696Z,63.60
2018-05-14T08:38:57.721Z,63.70
2018-05-14T08:40:50.663Z,64.47
2018-05-14T08:41:50.673Z,63.40
2018-05-14T08:43:43.610Z,63.67
2018-05-14T08:44:43.627Z,64.66
2018-05-14T08:46:36.544Z,65.53
2018-05-14T08:47:36.569Z,63.02
2018-05-14T08:49:29.516Z,64.28
2018-05-14T08:50:29.525Z,64.28
2018-05-14T08:52:22.951Z,64.66
2018-05-14T08:53:22.980Z,64.76
2018-05-14T08:55:15.915Z,63.79
2018-05-14T08:56:15.924Z,63.12
2018-05-14T08:58:08.844Z,62.28
2018-05-14T08:59:08.873Z,63.92
2018-05-14T09:01:02.304Z,64.21
2018-05-14T09:02:02.316Z,63.18
2018-05-14T09:03:55.254Z,62.31
2018-05-14T09:04:55.264Z,60.28
2018-05-14T09:06:48.185Z,60.09
2018-05-14T09:07:48.214Z,60.28
2018-05-14T09:09:41.160Z,59.92
2018-05-14T09:10:41.170Z,59.73
2018-05-14T09:12:34.091Z,61.57
2018-05-14T09:13:34.115Z,60.99
2018-05-14T09:15:27.058Z,57.12
2018-05-14T09:16:27.067Z,58.18
2018-05-14T09:18:19.990Z,59.28
2018-05-14T09:19:20.052Z,59.47
2018-05-14T09:21:12.968Z,57.92
2018-05-14T09:22:12.970Z,56.37
2018-05-14T09:24:05.909Z,57.82
2018-05-14T09:25:05.922Z,58.12
2018-05-14T09:26:58.857Z,58.50
2018-05-14T09:27:58.875Z,59.98
2018-05-14T09:29:51.816Z,58.04
2018-05-14T09:30:51.824Z,57.05
2018-05-14T09:32:44.747Z,58.40
2018-05-14T09:33:44.777Z,59.47
2018-05-14T09:35:37.723Z,57.54
2018-05-14T09:36:37.726Z,58.89
2018-05-14T09:38:30.651Z,57.24
2018-05-14T09:39:30.679Z,57.82
2018-05-14T09:41:23.627Z,58.31
2018-05-14T09:42:23.634Z,60.05
2018-05-14T09:44:16.588Z,59.95
2018-05-14T09:45:16.587Z,60.34
2018-05-14T09:47:09.510Z,60.05
2018-05-14T09:48:09.541Z,60.75
2018-05-14T09:50:02.481Z,59.11
2018-05-14T09:51:02.491Z,57.05
2018-05-14T09:52:55.907Z,58.40
2018-05-14T09:53:55.987Z,59.18
2018-05-14T09:55:48.884Z,60.63
2018-05-14T09:56:48.889Z,57.92
2018-05-14T09:58:41.812Z,58.63
2018-05-14T09:59:41.841Z,58.44
2018-05-14T10:01:34.790Z,58.14
2018-05-14T10:02:34.797Z,57.46
2018-05-14T10:04:27.745Z,57.86
2018-05-14T10:05:27.753Z,54.17
2018-05-14T10:07:20.677Z,53.41
2018-05-14T10:08:20.708Z,53.89
2018-05-14T10:10:13.648Z,53.67
2018-05-14T10:11:13.656Z,53.77
2018-05-14T10:13:06.711Z,53.86
2018-05-14T10:14:06.608Z,55.24
2018-05-14T10:15:59.612Z,55.63
2018-05-14T10:16:59.625Z,53.50
2018-05-14T10:18:52.588Z,56.21
2018-05-14T10:19:52.670Z,54.47
2018-05-14T10:21:45.518Z,53.59
2018-05-14T10:22:45.529Z,55.15
2018-05-14T10:24:38.574Z,57.37
2018-05-14T10:25:38.479Z,55.94
2018-05-14T10:27:31.404Z,56.24
2018-05-14T10:28:31.432Z,54.21
2018-05-14T10:30:24.372Z,53.14
2018-05-14T10:31:24.384Z,51.88
2018-05-14T10:33:17.312Z,51.88
2018-05-14T10:34:17.340Z,51.10
2018-05-14T10:36:10.277Z,52.56
2018-05-14T10:37:10.288Z,52.56
2018-05-14T10:39:03.212Z,54.11
2018-05-14T10:40:03.241Z,53.33
2018-05-14T10:41:56.181Z,55.20
2018-05-14T10:42:56.198Z,55.20
2018-05-14T10:44:49.142Z,53.36
2018-05-14T10:45:49.151Z,51.32
2018-05-14T10:47:42.075Z,53.17
2018-05-14T10:48:42.105Z,53.36
2018-05-14T10:50:35.148Z,52.39
2018-05-14T10:51:35.158Z,49.77
2018-05-14T10:53:28.184Z,49.29
2018-05-14T10:54:28.215Z,48.61
2018-05-14T10:56:21.669Z,49.58
2018-05-14T10:57:21.681Z,50.55
2018-05-14T10:59:14.708Z,51.25
2018-05-14T11:00:14.738Z,49.51
2018-05-14T11:02:07.784Z,49.90
2018-05-14T11:03:07.795Z,49.32
2018-05-14T11:05:00.876Z,50.12
2018-05-14T11:06:00.850Z,49.54
2018-05-14T11:07:53.877Z,48.95
2018-05-14T11:08:53.907Z,49.82
2018-05-14T11:10:46.951Z,49.22
2018-05-14T11:11:46.964Z,50.19
2018-05-14T11:13:39.989Z,50.09
2018-05-14T11:14:40.020Z,50.50
2018-05-14T11:16:33.064Z,48.95
2018-05-14T11:17:33.077Z,47.60
2018-05-14T11:19:26.100Z,47.79
2018-05-14T11:20:26.136Z,45.75
2018-05-14T11:22:19.177Z,45.95
2018-05-14T11:23:19.192Z,47.67
2018-05-14T11:25:12.219Z,47.30
2018-05-14T11:26:12.244Z,46.82
2018-05-14T11:28:05.289Z,48.47
2018-05-14T11:29:05.300Z,47.50
2018-05-14T11:30:58.355Z,48.08
2018-05-14T11:31:58.357Z,47.20
2018-05-14T11:33:51.793Z,48.66
2018-05-14T11:34:51.823Z,48.76
2018-05-14T11:36:46.258Z,46.04
2018-05-14T11:37:46.270Z,46.24
2018-05-14T11:39:39.195Z,47.60
2018-05-14T11:40:39.226Z,45.17
2018-05-14T11:42:32.167Z,44.40
2018-05-14T11:43:32.178Z,44.20
2018-05-14T11:45:25.102Z,43.82
2018-05-14T11:46:25.134Z,43.52
2018-05-14T11:48:18.083Z,44.01
2018-05-14T11:49:18.090Z,43.84
2018-05-14T11:51:11.032Z,42.38
2018-05-14T11:52:11.046Z,44.03
2018-05-14T11:54:03.971Z,39.11
2018-05-14T11:55:04.001Z,39.69
2018-05-14T11:56:56.944Z,37.74
2018-05-14T11:57:56.955Z,36.79
2018-05-14T11:59:49.881Z,36.69
2018-05-14T12:00:49.912Z,36.60
2018-05-14T12:02:42.947Z,34.17
2018-05-14T12:03:42.900Z,34.36
2018-05-14T12:05:35.927Z,35.53
2018-05-14T12:06:35.954Z,34.64
2018-05-14T12:08:29.409Z,34.25
2018-05-14T12:09:29.419Z,34.36
2018-05-14T12:11:22.466Z,34.27
2018-05-14T12:12:22.477Z,33.88
2018-05-14T12:14:15.503Z,34.85
2018-05-14T12:15:15.538Z,33.69
2018-05-14T12:17:08.581Z,32.71
2018-05-14T12:18:08.652Z,34.36
2018-05-14T12:20:01.616Z,34.46
2018-05-14T12:21:01.647Z,34.17
2018-05-14T12:22:55.099Z,33.11
2018-05-14T12:23:55.110Z,32.91
2018-05-14T12:25:48.138Z,33.78
2018-05-14T12:26:48.167Z,33.39
2018-05-14T12:28:41.215Z,34.48
2018-05-14T12:29:41.227Z,33.59
2018-05-14T12:31:34.678Z,34.58
2018-05-14T12:32:34.689Z,33.99
2018-05-14T12:34:27.717Z,33.29
2018-05-14T12:35:27.747Z,31.55
2018-05-14T12:37:20.790Z,34.09
2018-05-14T12:38:20.802Z,33.70
2018-05-14T12:40:13.828Z,31.35
2018-05-14T12:41:13.860Z,32.71
2018-05-14T12:43:07.312Z,33.20
2018-05-14T12:44:07.323Z,31.55
2018-05-14T12:46:00.380Z,33.01
2018-05-14T12:47:00.379Z,31.74
2018-05-14T12:48:53.425Z,33.29
2018-05-14T12:49:53.437Z,34.28
2018-05-14T12:51:46.481Z,34.38
2018-05-14T12:52:46.493Z,33.12
2018-05-14T12:54:39.520Z,32.73
2018-05-14T12:55:39.552Z,33.80
2018-05-14T12:57:32.593Z,34.38
2018-05-14T12:58:32.606Z,35.06
2018-05-14T13:00:25.631Z,33.31
2018-05-14T13:01:25.662Z,32.82
2018-05-14T13:03:18.706Z,33.80
2018-05-14T13:04:18.719Z,34.09
2018-05-14T13:06:11.744Z,31.37
2018-05-14T13:07:11.776Z,32.62
2018-05-14T13:09:04.825Z,32.24
2018-05-14T13:10:04.829Z,33.41
2018-05-14T13:11:57.875Z,35.64
2018-05-14T13:12:57.897Z,34.28
2018-05-14T13:14:50.913Z,33.33
2018-05-14T13:15:50.945Z,32.65
2018-05-14T13:17:43.988Z,32.55
2018-05-14T13:18:43.999Z,32.65
2018-05-14T13:20:37.025Z,33.14
2018-05-14T13:21:37.056Z,34.98
2018-05-14T13:23:30.100Z,35.27
2018-05-14T13:24:30.114Z,34.20
2018-05-14T13:26:23.176Z,34.69
2018-05-14T13:27:23.218Z,35.57
2018-05-14T13:29:16.214Z,35.17
2018-05-14T13:30:16.227Z,32.84
2018-05-14T13:32:09.293Z,33.31
2018-05-14T13:33:09.281Z,34.58
2018-05-14T13:35:02.311Z,33.02
2018-05-14T13:36:02.337Z,33.31
2018-05-14T13:37:55.952Z,32.24
2018-05-14T13:38:55.803Z,32.54
2018-05-14T13:40:48.833Z,34.77
2018-05-14T13:41:48.861Z,34.58
2018-05-14T13:43:41.903Z,34.01
2018-05-14T13:44:41.918Z,34.20
2018-05-14T13:46:34.948Z,32.05
2018-05-14T13:47:34.973Z,32.73
2018-05-14T13:49:28.017Z,33.70
2018-05-14T13:50:28.030Z,33.12
2018-05-14T13:52:21.073Z,33.90
2018-05-14T13:53:21.086Z,34.59
2018-05-14T13:55:14.109Z,34.11
2018-05-14T13:56:14.143Z,33.91
2018-05-14T13:58:07.185Z,34.01
2018-05-14T13:59:07.200Z,33.04
2018-05-14T14:01:00.223Z,34.42
2018-05-14T14:02:00.255Z,33.44
2018-05-14T14:03:53.302Z,34.42
2018-05-14T14:04:53.335Z,33.15
2018-05-14T14:06:46.338Z,32.86
2018-05-14T14:07:46.370Z,31.40
2018-05-14T14:09:39.411Z,32.96
2018-05-14T14:10:39.425Z,31.11
2018-05-14T14:12:32.475Z,31.50
2018-05-14T14:13:32.484Z,31.38
2018-05-14T14:15:25.507Z,30.90
2018-05-14T14:16:25.539Z,32.18
2018-05-14T14:18:18.581Z,33.25
2018-05-14T14:19:18.598Z,32.86
2018-05-14T14:21:11.619Z,32.96
2018-05-14T14:22:11.651Z,32.96
2018-05-14T14:24:04.807Z,31.60
2018-05-14T14:25:04.710Z,32.28
2018-05-14T14:26:57.730Z,31.11
2018-05-14T14:27:57.762Z,31.60
2018-05-14T14:29:50.819Z,29.65
2018-05-14T14:30:50.818Z,29.16
2018-05-14T14:32:43.773Z,29.26
2018-05-14T14:33:43.780Z,30.12
2018-05-14T14:35:36.797Z,31.19
2018-05-14T14:36:36.830Z,31.68
2018-05-14T14:38:30.281Z,32.37
2018-05-14T14:39:30.293Z,33.34
2018-05-14T14:41:23.318Z,32.76
2018-05-14T14:42:23.349Z,32.29
2018-05-14T14:44:16.395Z,30.93
2018-05-14T14:45:16.409Z,30.52
2018-05-14T14:47:09.431Z,32.57
2018-05-14T14:48:09.465Z,32.68
2018-05-14T14:50:02.514Z,33.25
2018-05-14T14:51:02.519Z,31.21
2018-05-14T14:52:55.562Z,31.70
2018-05-14T14:53:55.577Z,29.65
2018-05-14T14:55:48.601Z,30.62
2018-05-14T14:56:48.632Z,29.75
2018-05-14T14:58:41.675Z,29.94
2018-05-14T14:59:41.690Z,30.43
2018-05-14T15:01:34.715Z,32.26
2018-05-14T15:02:34.747Z,32.84
2018-05-14T15:04:27.791Z,33.34
2018-05-14T15:05:27.804Z,32.96
2018-05-14T15:07:20.825Z,31.30
2018-05-14T15:08:20.859Z,32.37
2018-05-14T15:10:13.902Z,32.37
2018-05-14T15:11:13.921Z,32.96
2018-05-14T15:13:06.957Z,33.15
2018-05-14T15:14:06.975Z,31.70
2018-05-14T15:15:59.993Z,30.44
2018-05-14T15:17:00.026Z,30.24
2018-05-14T15:18:53.071Z,31.21
2018-05-14T15:19:53.083Z,32.37
2018-05-14T15:21:46.107Z,31.90
2018-05-14T15:22:46.140Z,31.90
2018-05-14T15:24:39.189Z,31.71
2018-05-14T15:25:39.204Z,32.59
2018-05-14T15:27:32.223Z,32.00
2018-05-14T15:28:32.254Z,32.70
2018-05-14T15:30:25.294Z,31.63
2018-05-14T15:31:25.314Z,31.63
2018-05-14T15:33:18.357Z,31.22
2018-05-14T15:34:18.365Z,31.03
2018-05-14T15:36:13.239Z,32.68
2018-05-14T15:37:13.271Z,31.71
2018-05-14T15:39:06.306Z,32.78
2018-05-14T15:40:06.321Z,33.18
2018-05-14T15:41:59.345Z,33.07
2018-05-14T15:42:59.379Z,32.40
2018-05-14T15:44:52.423Z,32.89
2018-05-14T15:45:52.436Z,32.99
2018-05-14T15:47:45.456Z,34.24
2018-05-14T15:48:45.489Z,32.97
2018-05-14T15:50:38.530Z,32.29
2018-05-14T15:51:38.544Z,32.20
2018-05-14T15:53:31.679Z,31.40
2018-05-14T15:54:31.608Z,32.67
2018-05-14T15:56:24.670Z,33.04
2018-05-14T15:57:24.657Z,33.33
2018-05-14T15:59:17.704Z,33.81
2018-05-14T16:00:17.713Z,34.98
2018-05-14T16:02:10.739Z,33.91
2018-05-14T16:03:10.771Z,34.79
2018-05-14T16:05:03.852Z,34.11
2018-05-14T16:06:03.828Z,33.81
2018-05-14T16:07:56.933Z,34.79
2018-05-14T16:08:56.881Z,34.42
2018-05-14T16:10:49.948Z,35.00
2018-05-14T16:11:49.943Z,35.29
2018-05-14T16:13:42.987Z,35.29
2018-05-14T16:14:43.028Z,35.49
2018-05-14T16:16:35.926Z,36.46
2018-05-14T16:17:35.960Z,36.07
2018-05-14T16:19:28.907Z,33.64
2018-05-14T16:20:28.916Z,33.44
2018-05-14T16:22:21.844Z,32.57
2018-05-14T16:23:21.876Z,32.67
2018-05-14T16:25:14.907Z,31.11
2018-05-14T16:26:14.859Z,31.60
2018-05-14T16:28:07.813Z,32.37
2018-05-14T16:29:07.846Z,31.98
2018-05-14T16:31:01.787Z,31.50
2018-05-14T16:32:01.802Z,31.40
2018-05-14T16:33:55.241Z,32.35
2018-05-14T16:34:55.259Z,32.65
2018-05-14T16:36:48.181Z,32.26
2018-05-14T16:37:48.211Z,32.45
2018-05-14T16:39:41.161Z,32.17
2018-05-14T16:40:41.175Z,32.35
2018-05-14T16:42:34.100Z,33.33
2018-05-14T16:43:34.131Z,32.84
2018-05-14T16:45:27.082Z,33.04
2018-05-14T16:46:27.089Z,32.37
2018-05-14T16:48:20.015Z,32.28
2018-05-14T16:49:20.046Z,32.67
2018-05-14T16:51:12.996Z,33.33
2018-05-14T16:52:13.004Z,32.26
2018-05-14T16:54:06.473Z,33.33
2018-05-14T16:55:06.468Z,32.65
2018-05-14T16:56:59.407Z,32.84
2018-05-14T16:57:59.455Z,33.33
2018-05-14T16:59:52.379Z,33.33
2018-05-14T17:00:52.386Z,33.70
2018-05-14T17:02:45.432Z,33.90
2018-05-14T17:03:45.518Z,34.19
2018-05-14T17:05:38.901Z,34.40
2018-05-14T17:06:38.920Z,32.34
2018-05-14T17:08:31.934Z,32.92
2018-05-14T17:09:31.965Z,32.54
2018-05-14T17:11:24.914Z,32.64
2018-05-14T17:12:24.927Z,32.73
2018-05-14T17:14:17.875Z,30.97
2018-05-14T17:15:17.882Z,31.35
2018-05-14T17:17:10.811Z,32.62
2018-05-14T17:18:10.842Z,32.52
2018-05-14T17:20:03.791Z,32.81
2018-05-14T17:21:03.801Z,33.01
2018-05-14T17:22:56.736Z,32.91
2018-05-14T17:23:56.765Z,32.91
2018-05-14T17:25:50.207Z,32.62
2018-05-14T17:26:50.220Z,32.62
2018-05-14T17:28:43.143Z,32.91
2018-05-14T17:29:43.175Z,33.29
2018-05-14T17:31:36.125Z,32.81
2018-05-14T17:32:36.133Z,33.59
2018-05-14T17:34:29.084Z,33.39
2018-05-14T17:35:29.095Z,32.91
2018-05-14T17:37:22.018Z,33.11
2018-05-14T17:38:22.048Z,33.01
2018-05-14T17:40:14.997Z,33.88
2018-05-14T17:41:15.007Z,34.56
2018-05-14T17:43:07.934Z,34.36
2018-05-14T17:44:07.966Z,34.36
2018-05-14T17:46:00.912Z,33.59
2018-05-14T17:47:00.975Z,33.96
2018-05-14T17:48:53.854Z,33.86
2018-05-14T17:49:53.883Z,34.25
2018-05-14T17:51:46.833Z,33.47
2018-05-14T17:52:46.894Z,34.06
2018-05-14T17:54:39.789Z,33.28
2018-05-14T17:55:39.799Z,32.91
2018-05-14T17:57:32.782Z,33.01
2018-05-14T17:58:32.815Z,32.91
2018-05-14T18:00:25.856Z,32.44
2018-05-14T18:01:25.868Z,32.64
2018-05-14T18:03:18.901Z,32.92
2018-05-14T18:04:18.931Z,32.44
2018-05-14T18:06:12.384Z,32.15
2018-05-14T18:07:12.395Z,32.54
2018-05-14T18:09:05.418Z,32.54
2018-05-14T18:10:05.513Z,32.35
2018-05-14T18:11:58.495Z,32.45
2018-05-14T18:12:58.506Z,32.26
2018-05-14T18:14:51.557Z,31.29
2018-05-14T18:15:51.562Z,31.48
2018-05-14T18:17:44.614Z,32.07
2018-05-14T18:18:44.619Z,31.58
2018-05-14T18:20:37.662Z,32.07
2018-05-14T18:21:37.675Z,32.65
2018-05-14T18:23:30.699Z,32.92
2018-05-14T18:24:30.729Z,32.82
2018-05-14T18:26:23.774Z,34.27
2018-05-14T18:27:23.788Z,34.27
2018-05-14T18:29:16.813Z,34.85
2018-05-14T18:30:16.848Z,34.44
2018-05-14T18:32:09.887Z,33.76
2018-05-14T18:33:09.900Z,33.94
2018-05-14T18:35:02.947Z,33.94